Terminal Aerodrome Forecast
Issued by NWS

Home | Current Version | Previous Version | Text Only | Print | Product List | Glossary On
Versions: 1 2 3 4 5 6 7 8 9 10 11 12 13 14 15 16 17 18 19 20 21 22 23 24 25 26 27 28 29
000
FTUS41 KCTP 261730
TAFLNS
TAF
KLNS 261730Z 2618/2718 VRB03KT P6SM OVC015
      TEMPO 2621/2623 14004KT P6SM SCT015 BKN035
     FM262300 02003KT P6SM OVC035
     FM270600 16002KT 2SM BR OVC004
     FM271600 16005KT P6SM BKN035=

USA.gov is the U.S. government's official web portal to all federal, state and local government web resources and services.